createdAt,value
2023-05-21T00:00:49.838Z,0.00
2023-05-21T00:01:49.875Z,0.00
2023-05-21T00:02:49.852Z,0.00
2023-05-21T00:03:50.042Z,0.00
2023-05-21T00:04:49.805Z,0.00
2023-05-21T00:05:49.802Z,0.00
2023-05-21T00:06:49.769Z,0.00
2023-05-21T00:07:49.758Z,0.00
2023-05-21T00:08:49.745Z,0.00
2023-05-21T00:09:49.751Z,0.00
2023-05-21T00:10:49.730Z,0.00
2023-05-21T00:11:49.719Z,0.00
2023-05-21T00:12:49.745Z,0.00
2023-05-21T00:13:49.702Z,0.00
2023-05-21T00:14:49.714Z,0.00
2023-05-21T00:15:49.677Z,0.00
2023-05-21T00:16:49.782Z,0.00
2023-05-21T00:17:49.698Z,0.00
2023-05-21T00:18:49.671Z,0.00
2023-05-21T00:19:50.796Z,0.00
2023-05-21T00:20:50.750Z,0.00
2023-05-21T00:21:50.741Z,0.00
2023-05-21T00:22:50.744Z,0.00
2023-05-21T00:23:50.726Z,0.00
2023-05-21T00:24:50.756Z,0.00
2023-05-21T00:25:50.695Z,0.00
2023-05-21T00:26:50.693Z,0.00
2023-05-21T00:27:50.679Z,0.00
2023-05-21T00:28:50.684Z,0.00
2023-05-21T00:29:50.664Z,0.00
2023-05-21T00:30:50.657Z,0.00
2023-05-21T00:31:50.666Z,0.00
2023-05-21T00:32:50.676Z,0.00
2023-05-21T00:33:50.627Z,0.00
2023-05-21T00:34:50.615Z,0.00
2023-05-21T00:35:50.610Z,0.00
2023-05-21T00:36:50.601Z,0.00
2023-05-21T00:37:50.590Z,0.00
2023-05-21T00:38:50.577Z,0.00
2023-05-21T00:39:50.581Z,0.00
2023-05-21T00:40:50.555Z,0.00
2023-05-21T00:41:50.542Z,0.00
2023-05-21T00:42:50.560Z,0.00
2023-05-21T00:43:50.521Z,0.00
2023-05-21T00:44:50.512Z,0.00
2023-05-21T00:45:50.526Z,0.00
2023-05-21T00:46:50.493Z,0.00
2023-05-21T00:47:50.519Z,0.00
2023-05-21T00:48:50.469Z,0.00
2023-05-21T00:49:50.471Z,0.00
2023-05-21T00:50:51.452Z,0.00
2023-05-21T00:51:50.449Z,0.00
2023-05-21T00:52:50.446Z,0.00
2023-05-21T00:53:50.422Z,0.00
2023-05-21T00:54:50.411Z,0.00
2023-05-21T00:55:50.418Z,0.00
2023-05-21T00:56:50.397Z,0.00
2023-05-21T00:57:50.394Z,0.00
2023-05-21T00:58:50.366Z,0.00
2023-05-21T00:59:50.370Z,0.00
2023-05-21T01:00:50.451Z,0.00
2023-05-21T01:01:50.451Z,0.00
2023-05-21T01:02:50.416Z,0.00
2023-05-21T01:03:50.324Z,0.00
2023-05-21T01:04:50.331Z,0.00
2023-05-21T01:05:50.297Z,0.00
2023-05-21T01:06:50.307Z,0.00
2023-05-21T01:07:50.285Z,0.00
2023-05-21T01:08:50.276Z,0.00
2023-05-21T01:09:50.261Z,0.00
2023-05-21T01:10:50.258Z,0.00
2023-05-21T01:11:50.262Z,0.00
2023-05-21T01:12:50.240Z,0.00
2023-05-21T01:13:50.233Z,0.00
2023-05-21T01:14:50.216Z,0.00
2023-05-21T01:15:50.218Z,0.00
2023-05-21T01:16:50.267Z,0.00
2023-05-21T01:17:50.210Z,0.00
2023-05-21T01:18:50.273Z,0.00
2023-05-21T01:19:50.244Z,0.00
2023-05-21T01:20:50.199Z,0.00
2023-05-21T01:21:50.149Z,0.00
2023-05-21T01:22:50.142Z,0.00
2023-05-21T01:23:50.132Z,0.00
2023-05-21T01:24:50.119Z,0.00
2023-05-21T01:25:50.116Z,0.00
2023-05-21T01:26:50.102Z,0.00
2023-05-21T01:27:50.095Z,0.00
2023-05-21T01:28:50.079Z,0.00
2023-05-21T01:29:50.089Z,0.00
2023-05-21T01:30:50.074Z,0.00
2023-05-21T01:31:50.063Z,0.00
2023-05-21T01:32:50.144Z,0.00
2023-05-21T01:33:50.087Z,0.00
2023-05-21T01:34:50.040Z,0.00
2023-05-21T01:35:50.014Z,0.00
2023-05-21T01:36:50.001Z,0.00
2023-05-21T01:37:50.003Z,0.00
2023-05-21T01:38:49.994Z,0.00
2023-05-21T01:39:49.996Z,0.00
2023-05-21T01:40:49.974Z,0.00
2023-05-21T01:41:49.959Z,0.00
2023-05-21T01:42:49.958Z,0.00
2023-05-21T01:43:49.955Z,0.00
2023-05-21T01:44:49.939Z,0.00
2023-05-21T01:45:49.924Z,0.00
2023-05-21T01:46:50.046Z,0.00
2023-05-21T01:47:49.954Z,0.00
2023-05-21T01:48:49.900Z,0.00
2023-05-21T01:49:49.889Z,0.00
2023-05-21T01:50:49.885Z,0.00
2023-05-21T01:51:49.861Z,0.00
2023-05-21T01:52:49.855Z,0.00
2023-05-21T01:53:49.863Z,0.00
2023-05-21T01:54:49.832Z,0.00
2023-05-21T01:55:49.818Z,0.00
2023-05-21T01:56:49.828Z,0.00
2023-05-21T01:57:49.804Z,0.00
2023-05-21T01:58:49.816Z,0.00
2023-05-21T01:59:49.779Z,0.00
2023-05-21T02:00:49.773Z,0.00
2023-05-21T02:01:49.858Z,0.00
2023-05-21T02:02:49.791Z,0.00
2023-05-21T02:03:49.809Z,0.00
2023-05-21T02:04:49.733Z,0.00
2023-05-21T02:05:49.728Z,0.00
2023-05-21T02:06:49.740Z,0.00
2023-05-21T02:07:49.741Z,0.00
2023-05-21T02:08:49.701Z,0.00
2023-05-21T02:09:49.693Z,0.00
2023-05-21T02:10:49.672Z,0.00
2023-05-21T02:11:49.658Z,0.00
2023-05-21T02:12:49.672Z,0.00
2023-05-21T02:13:49.643Z,0.00
2023-05-21T02:14:49.639Z,0.00
2023-05-21T02:15:49.647Z,0.00
2023-05-21T02:16:49.622Z,0.00
2023-05-21T02:17:49.673Z,0.00
2023-05-21T02:18:49.613Z,0.00
2023-05-21T02:19:49.577Z,0.00
2023-05-21T02:20:49.587Z,0.00
2023-05-21T02:21:49.574Z,0.00
2023-05-21T02:22:49.545Z,0.00
2023-05-21T02:23:49.549Z,0.00
2023-05-21T02:24:49.532Z,0.00
2023-05-21T02:25:49.524Z,0.00
2023-05-21T02:26:49.527Z,0.00
2023-05-21T02:27:49.514Z,0.00
2023-05-21T02:28:49.498Z,0.00
2023-05-21T02:29:49.492Z,0.00
2023-05-21T02:30:49.475Z,0.00
2023-05-21T02:31:49.478Z,0.00
2023-05-21T02:32:49.472Z,0.00
2023-05-21T02:33:49.455Z,0.00
2023-05-21T02:34:49.434Z,0.00
2023-05-21T02:35:49.442Z,0.00
2023-05-21T02:36:49.454Z,0.00
2023-05-21T02:37:49.406Z,0.00
2023-05-21T02:38:49.389Z,0.00
2023-05-21T02:39:49.385Z,0.00
2023-05-21T02:40:49.388Z,0.00
2023-05-21T02:41:49.361Z,0.00
2023-05-21T02:42:49.356Z,0.00
2023-05-21T02:43:49.344Z,0.00
2023-05-21T02:44:49.339Z,0.00
2023-05-21T02:45:49.361Z,0.00
2023-05-21T02:46:49.320Z,0.00
2023-05-21T02:47:49.323Z,0.00
2023-05-21T02:48:49.301Z,0.00
2023-05-21T02:49:49.299Z,0.00
2023-05-21T02:50:49.282Z,0.00
2023-05-21T02:51:49.254Z,0.00
2023-05-21T02:52:50.259Z,0.00
2023-05-21T02:53:49.237Z,0.00
2023-05-21T02:54:49.254Z,0.00
2023-05-21T02:55:49.218Z,0.00
2023-05-21T02:56:49.207Z,0.00
2023-05-21T02:57:49.196Z,0.00
2023-05-21T02:58:49.195Z,4.00
2023-05-21T02:59:49.197Z,4.00
2023-05-21T03:00:49.173Z,4.00
2023-05-21T03:01:49.243Z,0.00
2023-05-21T03:02:49.240Z,4.00
2023-05-21T03:03:49.200Z,4.00
2023-05-21T03:04:50.149Z,4.00
2023-05-21T03:05:49.136Z,4.00
2023-05-21T03:06:49.112Z,8.00
2023-05-21T03:07:49.120Z,8.00
2023-05-21T03:08:49.091Z,8.00
2023-05-21T03:09:49.110Z,8.00
2023-05-21T03:10:49.070Z,8.00
2023-05-21T03:11:49.071Z,12.00
2023-05-21T03:12:49.067Z,12.00
2023-05-21T03:13:49.092Z,12.00
2023-05-21T03:14:49.053Z,16.00
2023-05-21T03:15:49.030Z,16.00
2023-05-21T03:16:49.113Z,20.00
2023-05-21T03:17:49.050Z,20.00
2023-05-21T03:18:49.019Z,20.00
2023-05-21T03:19:49.004Z,24.00
2023-05-21T03:20:48.962Z,24.00
2023-05-21T03:21:49.973Z,28.00
2023-05-21T03:22:48.955Z,32.00
2023-05-21T03:23:48.963Z,32.00
2023-05-21T03:24:48.939Z,36.00
2023-05-21T03:25:48.940Z,40.00
2023-05-21T03:26:48.914Z,44.00
2023-05-21T03:27:48.914Z,44.00
2023-05-21T03:28:48.912Z,48.00
2023-05-21T03:29:48.882Z,52.00
2023-05-21T03:30:48.878Z,56.00
2023-05-21T03:31:48.951Z,60.00
2023-05-21T03:32:48.875Z,68.00
2023-05-21T03:33:48.865Z,76.00
2023-05-21T03:34:48.853Z,80.00
2023-05-21T03:35:48.833Z,88.00
2023-05-21T03:36:48.821Z,92.00
2023-05-21T03:37:48.813Z,100.00
2023-05-21T03:38:48.810Z,104.00
2023-05-21T03:39:48.794Z,112.00
2023-05-21T03:40:48.771Z,120.00
2023-05-21T03:41:48.778Z,128.00
2023-05-21T03:42:48.778Z,132.00
2023-05-21T03:43:48.746Z,144.00
2023-05-21T03:44:48.738Z,152.00
2023-05-21T03:45:48.757Z,160.00
2023-05-21T03:46:48.718Z,168.00
2023-05-21T03:47:48.751Z,172.00
2023-05-21T03:48:48.708Z,180.00
2023-05-21T03:49:48.685Z,192.00
2023-05-21T03:50:48.682Z,200.00
2023-05-21T03:51:48.681Z,208.00
2023-05-21T03:52:48.666Z,220.00
2023-05-21T03:53:48.641Z,224.00
2023-05-21T03:54:48.636Z,232.00
2023-05-21T03:55:48.624Z,244.00
2023-05-21T03:56:48.630Z,252.00
2023-05-21T03:57:48.614Z,264.00
2023-05-21T03:58:48.602Z,268.00
2023-05-21T03:59:48.589Z,280.00
2023-05-21T04:00:48.577Z,288.00
2023-05-21T04:01:48.578Z,300.00
2023-05-21T04:02:48.649Z,308.00
2023-05-21T04:03:48.773Z,324.00
2023-05-21T04:04:48.574Z,332.00
2023-05-21T04:05:48.540Z,344.00
2023-05-21T04:06:48.533Z,360.00
2023-05-21T04:07:48.508Z,368.00
2023-05-21T04:08:48.498Z,380.00
2023-05-21T04:09:48.488Z,392.00
2023-05-21T04:10:48.513Z,408.00
2023-05-21T04:11:48.490Z,420.00
2023-05-21T04:12:48.471Z,432.00
2023-05-21T04:13:48.454Z,444.00
2023-05-21T04:14:48.433Z,456.00
2023-05-21T04:15:48.456Z,468.00
2023-05-21T04:16:48.419Z,480.00
2023-05-21T04:17:48.471Z,492.00
2023-05-21T04:18:48.411Z,508.00
2023-05-21T04:19:48.402Z,520.00
2023-05-21T04:20:48.385Z,532.00
2023-05-21T04:21:48.368Z,544.00
2023-05-21T04:22:48.368Z,564.00
2023-05-21T04:23:48.363Z,576.00
2023-05-21T04:24:48.328Z,592.00
2023-05-21T04:25:48.332Z,608.00
2023-05-21T04:26:48.313Z,620.00
2023-05-21T04:27:48.302Z,640.00
2023-05-21T04:28:48.292Z,656.00
2023-05-21T04:29:50.656Z,672.00
2023-05-21T04:30:48.278Z,688.00
2023-05-21T04:31:48.349Z,708.00
2023-05-21T04:32:48.357Z,724.00
2023-05-21T04:33:48.248Z,740.00
2023-05-21T04:34:48.244Z,764.00
2023-05-21T04:35:48.215Z,784.00
2023-05-21T04:36:48.226Z,800.00
2023-05-21T04:37:48.196Z,820.00
2023-05-21T04:38:48.188Z,840.00
2023-05-21T04:39:48.198Z,860.00
2023-05-21T04:40:48.164Z,880.00
2023-05-21T04:41:48.161Z,904.00
2023-05-21T04:42:48.147Z,928.00
2023-05-21T04:43:48.129Z,948.00
2023-05-21T04:44:48.146Z,968.00
2023-05-21T04:45:48.129Z,992.00
2023-05-21T04:46:48.133Z,1008.00
2023-05-21T04:47:48.161Z,1032.00
2023-05-21T04:48:48.102Z,1056.00
2023-05-21T04:49:48.105Z,1076.00
2023-05-21T04:50:48.070Z,1096.00
2023-05-21T04:51:48.063Z,1120.00
2023-05-21T04:52:48.043Z,1144.00
2023-05-21T04:53:49.054Z,1164.00
2023-05-21T04:54:48.026Z,1188.00
2023-05-21T04:55:48.071Z,1212.00
2023-05-21T04:56:48.012Z,1232.00
2023-05-21T04:57:48.003Z,1256.00
2023-05-21T04:58:48.069Z,1284.00
2023-05-21T04:59:47.983Z,1308.00
2023-05-21T05:00:47.991Z,1336.00
2023-05-21T05:01:47.959Z,1356.00
2023-05-21T05:02:48.038Z,1384.00
2023-05-21T05:03:48.000Z,1404.00
2023-05-21T05:04:47.938Z,1428.00
2023-05-21T05:05:47.938Z,1448.00
2023-05-21T05:06:47.914Z,1472.00
2023-05-21T05:07:47.922Z,1496.00
2023-05-21T05:08:47.901Z,1520.00
2023-05-21T05:09:48.888Z,1540.00
2023-05-21T05:10:47.887Z,1560.00
2023-05-21T05:11:47.863Z,1584.00
2023-05-21T05:12:47.878Z,1608.00
2023-05-21T05:13:47.851Z,1628.00
2023-05-21T05:14:47.850Z,1648.00
2023-05-21T05:15:49.632Z,1672.00
2023-05-21T05:16:48.874Z,1696.00
2023-05-21T05:17:47.904Z,1720.00
2023-05-21T05:18:47.825Z,1744.00
2023-05-21T05:19:47.787Z,1772.00
2023-05-21T05:20:47.778Z,1796.00
2023-05-21T05:21:47.775Z,1824.00
2023-05-21T05:22:47.770Z,1860.00
2023-05-21T05:23:47.754Z,1888.00
2023-05-21T05:24:47.739Z,1924.00
2023-05-21T05:25:47.735Z,1956.00
2023-05-21T05:26:47.759Z,1972.00
2023-05-21T05:27:47.727Z,1992.00
2023-05-21T05:28:47.699Z,2032.00
2023-05-21T05:29:47.699Z,2108.00
2023-05-21T05:30:47.731Z,2156.00
2023-05-21T05:31:47.683Z,2148.00
2023-05-21T05:32:47.684Z,2104.00
2023-05-21T05:33:47.649Z,2120.00
2023-05-21T05:34:47.645Z,2148.00
2023-05-21T05:35:47.628Z,2156.00
2023-05-21T05:36:47.635Z,2160.00
2023-05-21T05:37:47.615Z,2176.00
2023-05-21T05:38:47.608Z,2200.00
2023-05-21T05:39:47.588Z,2220.00
2023-05-21T05:40:47.584Z,2240.00
2023-05-21T05:41:47.590Z,2272.00
2023-05-21T05:42:47.670Z,2308.00
2023-05-21T05:43:47.566Z,2336.00
2023-05-21T05:44:47.546Z,2360.00
2023-05-21T05:45:47.596Z,2364.00
2023-05-21T05:46:47.651Z,2372.00
2023-05-21T05:47:47.560Z,2392.00
2023-05-21T05:48:47.498Z,2436.00
2023-05-21T05:49:47.493Z,2496.00
2023-05-21T05:50:47.496Z,2508.00
2023-05-21T05:51:47.474Z,2556.00
2023-05-21T05:52:47.452Z,2576.00
2023-05-21T05:53:47.451Z,2636.00
2023-05-21T05:54:47.456Z,2592.00
2023-05-21T05:55:47.437Z,2656.00
2023-05-21T05:56:47.428Z,2644.00
2023-05-21T05:57:47.420Z,2676.00
2023-05-21T05:58:47.403Z,2680.00
2023-05-21T05:59:47.398Z,2636.00
2023-05-21T06:00:47.375Z,2612.00
2023-05-21T06:01:47.370Z,2616.00
2023-05-21T06:02:47.416Z,2616.00
2023-05-21T06:03:47.506Z,2612.00
2023-05-21T06:04:47.366Z,2608.00
2023-05-21T06:05:47.369Z,2612.00
2023-05-21T06:06:47.322Z,2628.00
2023-05-21T06:07:47.323Z,2644.00
2023-05-21T06:08:47.306Z,2664.00
2023-05-21T06:09:47.316Z,2700.00
2023-05-21T06:10:47.285Z,2764.00
2023-05-21T06:11:47.280Z,2896.00
2023-05-21T06:12:47.266Z,2992.00
2023-05-21T06:13:47.270Z,3124.00
2023-05-21T06:14:47.263Z,3168.00
2023-05-21T06:15:47.297Z,3012.00
2023-05-21T06:16:47.223Z,2960.00
2023-05-21T06:17:47.266Z,2952.00
2023-05-21T06:18:47.247Z,2936.00
2023-05-21T06:19:47.192Z,2944.00
2023-05-21T06:20:47.198Z,2956.00
2023-05-21T06:21:47.185Z,3008.00
2023-05-21T06:22:47.162Z,3016.00
2023-05-21T06:23:47.162Z,3040.00
2023-05-21T06:24:47.151Z,3080.00
2023-05-21T06:25:47.137Z,3084.00
2023-05-21T06:26:47.120Z,3080.00
2023-05-21T06:27:47.117Z,3072.00
2023-05-21T06:28:47.111Z,3080.00
2023-05-21T06:29:47.085Z,3096.00
2023-05-21T06:30:47.090Z,3100.00
2023-05-21T06:31:47.076Z,3112.00
2023-05-21T06:32:47.131Z,3124.00
2023-05-21T06:33:47.137Z,3140.00
2023-05-21T06:34:47.052Z,3160.00
2023-05-21T06:35:47.028Z,3184.00
2023-05-21T06:36:47.032Z,3212.00
2023-05-21T06:37:47.023Z,3244.00
2023-05-21T06:38:46.995Z,3272.00
2023-05-21T06:39:47.006Z,3280.00
2023-05-21T06:40:46.983Z,3268.00
2023-05-21T06:41:47.204Z,3280.00
2023-05-21T06:42:46.975Z,3304.00
2023-05-21T06:43:46.950Z,3332.00
2023-05-21T06:44:46.949Z,3364.00
2023-05-21T06:45:46.948Z,3412.00
2023-05-21T06:46:46.937Z,3484.00
2023-05-21T06:47:46.991Z,3504.00
2023-05-21T06:48:46.909Z,3504.00
2023-05-21T06:49:46.895Z,3548.00
2023-05-21T06:50:46.888Z,3564.00
2023-05-21T06:51:46.884Z,3572.00
2023-05-21T06:52:46.860Z,3560.00
2023-05-21T06:53:46.853Z,3580.00
2023-05-21T06:54:46.851Z,3596.00
2023-05-21T06:55:46.861Z,3628.00
2023-05-21T06:56:46.867Z,3668.00
2023-05-21T06:57:46.830Z,3704.00
2023-05-21T06:58:46.806Z,3728.00
2023-05-21T06:59:46.794Z,3768.00
2023-05-21T07:00:46.846Z,3828.00
2023-05-21T07:01:47.925Z,3908.00
2023-05-21T07:02:47.035Z,3964.00
2023-05-21T07:03:46.795Z,4012.00
2023-05-21T07:04:46.762Z,4052.00
2023-05-21T07:05:46.745Z,4124.00
2023-05-21T07:06:46.915Z,4292.00
2023-05-21T07:07:46.715Z,4644.00
2023-05-21T07:08:46.706Z,5652.00
2023-05-21T07:09:46.692Z,6096.00
2023-05-21T07:10:46.704Z,5948.00
2023-05-21T07:11:46.674Z,6128.00
2023-05-21T07:12:46.669Z,6448.00
2023-05-21T07:13:46.656Z,5932.00
2023-05-21T07:14:46.655Z,5788.00
2023-05-21T07:15:46.654Z,6476.00
2023-05-21T07:16:46.695Z,6456.00
2023-05-21T07:17:46.669Z,6584.00
2023-05-21T07:18:46.626Z,6392.00
2023-05-21T07:19:46.613Z,6180.00
2023-05-21T07:20:46.603Z,5748.00
2023-05-21T07:21:46.574Z,5824.00
2023-05-21T07:22:46.567Z,5204.00
2023-05-21T07:23:46.566Z,5004.00
2023-05-21T07:24:46.560Z,4940.00
2023-05-21T07:25:46.548Z,4932.00
2023-05-21T07:26:46.528Z,4924.00
2023-05-21T07:27:46.523Z,4976.00
2023-05-21T07:28:46.527Z,5256.00
2023-05-21T07:29:46.514Z,5116.00
2023-05-21T07:30:46.508Z,4948.00
2023-05-21T07:31:46.479Z,5208.00
2023-05-21T07:32:46.514Z,5500.00
2023-05-21T07:33:46.455Z,5504.00
2023-05-21T07:34:46.467Z,5540.00
2023-05-21T07:35:46.441Z,5752.00
2023-05-21T07:36:46.434Z,5416.00
2023-05-21T07:37:46.456Z,5428.00
2023-05-21T07:38:46.415Z,5628.00
2023-05-21T07:39:46.408Z,5280.00
2023-05-21T07:40:46.393Z,5192.00
2023-05-21T07:41:46.385Z,5276.00
2023-05-21T07:42:46.377Z,5260.00
2023-05-21T07:43:46.367Z,5460.00
2023-05-21T07:44:46.361Z,5460.00
2023-05-21T07:45:46.345Z,5420.00
2023-05-21T07:46:46.432Z,5256.00
2023-05-21T07:47:46.368Z,5156.00
2023-05-21T07:48:46.315Z,5044.00
2023-05-21T07:49:46.353Z,5056.00
2023-05-21T07:50:46.309Z,5456.00
2023-05-21T07:51:46.290Z,5504.00
2023-05-21T07:52:46.358Z,5380.00
2023-05-21T07:53:46.268Z,5276.00
2023-05-21T07:54:46.269Z,5272.00
2023-05-21T07:55:46.256Z,5108.00
2023-05-21T07:56:46.250Z,4984.00
2023-05-21T07:57:46.230Z,4856.00
2023-05-21T07:58:46.240Z,4792.00
2023-05-21T07:59:46.217Z,4776.00
2023-05-21T08:00:46.199Z,4784.00
2023-05-21T08:01:46.195Z,4840.00
2023-05-21T08:02:46.237Z,4880.00
2023-05-21T08:03:46.294Z,5040.00
2023-05-21T08:04:46.194Z,5252.00
2023-05-21T08:05:46.156Z,5400.00
2023-05-21T08:06:46.150Z,5612.00
2023-05-21T08:07:47.139Z,5772.00
2023-05-21T08:08:46.136Z,5936.00
2023-05-21T08:09:46.126Z,6024.00
2023-05-21T08:10:46.101Z,6180.00
2023-05-21T08:11:46.097Z,6312.00
2023-05-21T08:12:46.098Z,6312.00
2023-05-21T08:13:46.113Z,6348.00
2023-05-21T08:14:46.062Z,6432.00
2023-05-21T08:15:46.060Z,6540.00
2023-05-21T08:16:46.174Z,6648.00
2023-05-21T08:17:46.080Z,6876.00
2023-05-21T08:18:46.036Z,6992.00
2023-05-21T08:19:46.015Z,7144.00
2023-05-21T08:20:46.008Z,7044.00
2023-05-21T08:21:46.023Z,6888.00
2023-05-21T08:22:46.013Z,6968.00
2023-05-21T08:23:45.975Z,6972.00
2023-05-21T08:24:45.977Z,6980.00
2023-05-21T08:25:45.975Z,7108.00
2023-05-21T08:26:45.981Z,7168.00
2023-05-21T08:27:45.958Z,6888.00
2023-05-21T08:28:45.931Z,7168.00
2023-05-21T08:29:45.924Z,7024.00
2023-05-21T08:30:45.920Z,6836.00
2023-05-21T08:31:46.003Z,6852.00
2023-05-21T08:32:45.924Z,6784.00
2023-05-21T08:33:45.888Z,6924.00
2023-05-21T08:34:45.873Z,6916.00
2023-05-21T08:35:45.877Z,6748.00
2023-05-21T08:36:45.864Z,6728.00
2023-05-21T08:37:45.851Z,6732.00
2023-05-21T08:38:45.944Z,6740.00
2023-05-21T08:39:45.823Z,6804.00
2023-05-21T08:40:45.835Z,6916.00
2023-05-21T08:41:45.810Z,6956.00
2023-05-21T08:42:45.801Z,7364.00
2023-05-21T08:43:47.385Z,7716.00
2023-05-21T08:44:45.847Z,7644.00
2023-05-21T08:45:45.873Z,7552.00
2023-05-21T08:46:45.823Z,7544.00
2023-05-21T08:47:45.809Z,7604.00
2023-05-21T08:48:45.795Z,7448.00
2023-05-21T08:49:45.781Z,7276.00
2023-05-21T08:50:45.775Z,7328.00
2023-05-21T08:51:45.753Z,7104.00
2023-05-21T08:52:45.791Z,7064.00
2023-05-21T08:53:45.762Z,6944.00
2023-05-21T08:54:45.789Z,6848.00
2023-05-21T08:55:45.777Z,6868.00
2023-05-21T08:56:45.733Z,6772.00
2023-05-21T08:57:45.766Z,6820.00
2023-05-21T08:58:45.744Z,6904.00
2023-05-21T08:59:45.690Z,6908.00
2023-05-21T09:00:45.664Z,6912.00
2023-05-21T09:01:45.753Z,7060.00
2023-05-21T09:02:45.700Z,7324.00
2023-05-21T09:03:46.689Z,7488.00
2023-05-21T09:04:45.738Z,7728.00
2023-05-21T09:05:45.650Z,7836.00
2023-05-21T09:06:45.628Z,8020.00
2023-05-21T09:07:45.629Z,8216.00
2023-05-21T09:08:45.603Z,8320.00
2023-05-21T09:09:45.628Z,8364.00
2023-05-21T09:10:45.593Z,8248.00
2023-05-21T09:11:45.591Z,8260.00
2023-05-21T09:12:45.552Z,8176.00
2023-05-21T09:13:45.609Z,8184.00
2023-05-21T09:14:45.641Z,7816.00
2023-05-21T09:15:45.526Z,7792.00
2023-05-21T09:16:45.600Z,7768.00
2023-05-21T09:17:45.620Z,7540.00
2023-05-21T09:18:45.587Z,7860.00
2023-05-21T09:19:45.530Z,7672.00
2023-05-21T09:20:45.471Z,7460.00
2023-05-21T09:21:45.474Z,7320.00
2023-05-21T09:22:45.499Z,7160.00
2023-05-21T09:23:45.522Z,7292.00
2023-05-21T09:24:45.472Z,7396.00
2023-05-21T09:25:45.459Z,7128.00
2023-05-21T09:26:45.567Z,6984.00
2023-05-21T09:27:45.533Z,7452.00
2023-05-21T09:28:45.465Z,7576.00
2023-05-21T09:29:45.442Z,7736.00
2023-05-21T09:30:45.472Z,7840.00
2023-05-21T09:31:45.612Z,7868.00
2023-05-21T09:32:45.425Z,8100.00
2023-05-21T09:33:45.411Z,7900.00
2023-05-21T09:34:45.385Z,7832.00
2023-05-21T09:35:45.360Z,8112.00
2023-05-21T09:36:45.369Z,8124.00
2023-05-21T09:37:45.352Z,8072.00
2023-05-21T09:38:45.351Z,8268.00
2023-05-21T09:39:45.300Z,8440.00
2023-05-21T09:40:45.332Z,8428.00
2023-05-21T09:41:45.309Z,8384.00
2023-05-21T09:42:45.317Z,8356.00
2023-05-21T09:43:45.302Z,8400.00
2023-05-21T09:44:45.305Z,8464.00
2023-05-21T09:45:45.316Z,8464.00
2023-05-21T09:46:45.317Z,8480.00
2023-05-21T09:47:45.268Z,8340.00
2023-05-21T09:48:45.240Z,8512.00
2023-05-21T09:49:45.214Z,8420.00
2023-05-21T09:50:45.237Z,8472.00
2023-05-21T09:51:45.190Z,8516.00
2023-05-21T09:52:45.165Z,8524.00
2023-05-21T09:53:45.159Z,8280.00
2023-05-21T09:54:45.173Z,8396.00
2023-05-21T09:55:45.168Z,8232.00
2023-05-21T09:56:45.149Z,8044.00
2023-05-21T09:57:45.133Z,7960.00
2023-05-21T09:58:45.140Z,7892.00
2023-05-21T09:59:45.103Z,7848.00
2023-05-21T10:00:45.226Z,7884.00
2023-05-21T10:01:45.231Z,7756.00
2023-05-21T10:02:45.198Z,7780.00
2023-05-21T10:03:45.166Z,7852.00
2023-05-21T10:04:45.244Z,7808.00
2023-05-21T10:05:45.146Z,7784.00
2023-05-21T10:06:45.029Z,7904.00
2023-05-21T10:07:45.046Z,7864.00
2023-05-21T10:08:45.039Z,8012.00
2023-05-21T10:09:45.021Z,7924.00
2023-05-21T10:10:45.044Z,8180.00
2023-05-21T10:11:45.042Z,8120.00
2023-05-21T10:12:44.981Z,8172.00
2023-05-21T10:13:44.980Z,8288.00
2023-05-21T10:14:45.020Z,8548.00
2023-05-21T10:15:45.044Z,8828.00
2023-05-21T10:16:45.042Z,9308.00
2023-05-21T10:17:45.001Z,9340.00
2023-05-21T10:18:44.976Z,9392.00
2023-05-21T10:19:44.974Z,9448.00
2023-05-21T10:20:44.942Z,9520.00
2023-05-21T10:21:47.270Z,9560.00
2023-05-21T10:22:45.896Z,9592.00
2023-05-21T10:23:48.611Z,9520.00
2023-05-21T10:24:45.626Z,9456.00
2023-05-21T10:25:44.888Z,9424.00
2023-05-21T10:26:44.879Z,9408.00
2023-05-21T10:27:44.919Z,9436.00
2023-05-21T10:28:44.910Z,9416.00
2023-05-21T10:29:44.932Z,9668.00
2023-05-21T10:30:44.886Z,9808.00
2023-05-21T10:31:44.856Z,9852.00
2023-05-21T10:32:44.990Z,9936.00
2023-05-21T10:33:44.817Z,9920.00
2023-05-21T10:34:44.803Z,9944.00
2023-05-21T10:35:44.829Z,9944.00
2023-05-21T10:36:44.797Z,9916.00
2023-05-21T10:37:44.795Z,9896.00
2023-05-21T10:38:44.805Z,9888.00
2023-05-21T10:39:44.775Z,9816.00
2023-05-21T10:40:44.747Z,9796.00
2023-05-21T10:41:46.646Z,9640.00
2023-05-21T10:42:44.724Z,9608.00
2023-05-21T10:43:44.748Z,9560.00
2023-05-21T10:44:44.725Z,9436.00
2023-05-21T10:45:44.714Z,9432.00
2023-05-21T10:46:44.771Z,9328.00
2023-05-21T10:47:44.698Z,9276.00
2023-05-21T10:48:44.676Z,9236.00
2023-05-21T10:49:44.661Z,9180.00
2023-05-21T10:50:44.621Z,9084.00
2023-05-21T10:51:44.672Z,9032.00
2023-05-21T10:52:44.714Z,8812.00
2023-05-21T10:53:44.660Z,8800.00
2023-05-21T10:54:44.608Z,8704.00
2023-05-21T10:55:44.618Z,8736.00
2023-05-21T10:56:44.600Z,8684.00
2023-05-21T10:57:44.605Z,8656.00
2023-05-21T10:58:44.587Z,8704.00
2023-05-21T10:59:44.580Z,8700.00
2023-05-21T11:00:44.594Z,8792.00
2023-05-21T11:01:44.655Z,8732.00
2023-05-21T11:02:44.643Z,8816.00
2023-05-21T11:03:44.614Z,8872.00
2023-05-21T11:04:44.537Z,8888.00
2023-05-21T11:05:44.531Z,8932.00
2023-05-21T11:06:44.535Z,8848.00
2023-05-21T11:07:44.513Z,8836.00
2023-05-21T11:08:45.596Z,9360.00
2023-05-21T11:09:44.454Z,9324.00
2023-05-21T11:10:44.515Z,9388.00
2023-05-21T11:11:44.437Z,9308.00
2023-05-21T11:12:44.416Z,9360.00
2023-05-21T11:13:44.392Z,9444.00
2023-05-21T11:14:44.396Z,9492.00
2023-05-21T11:15:44.379Z,9520.00
2023-05-21T11:16:44.408Z,9564.00
2023-05-21T11:17:44.424Z,9612.00
2023-05-21T11:18:44.500Z,9636.00
2023-05-21T11:19:44.431Z,9664.00
2023-05-21T11:20:44.352Z,9648.00
2023-05-21T11:21:44.359Z,9612.00
2023-05-21T11:22:44.340Z,9568.00
2023-05-21T11:23:44.322Z,9436.00
2023-05-21T11:24:44.316Z,9296.00
2023-05-21T11:25:44.318Z,9140.00
2023-05-21T11:26:44.305Z,8940.00
2023-05-21T11:27:44.307Z,8812.00
2023-05-21T11:28:44.266Z,8712.00
2023-05-21T11:29:44.307Z,8468.00
2023-05-21T11:30:44.520Z,8332.00
2023-05-21T11:31:44.290Z,8220.00
2023-05-21T11:32:44.271Z,8184.00
2023-05-21T11:33:44.234Z,8160.00
2023-05-21T11:34:44.199Z,8200.00
2023-05-21T11:35:44.203Z,8064.00
2023-05-21T11:36:44.185Z,7852.00
2023-05-21T11:37:44.175Z,7940.00
2023-05-21T11:38:44.158Z,7732.00
2023-05-21T11:39:44.169Z,7720.00
2023-05-21T11:40:44.154Z,7772.00
2023-05-21T11:41:44.147Z,7628.00
2023-05-21T11:42:44.155Z,7356.00
2023-05-21T11:43:45.131Z,7516.00
2023-05-21T11:44:44.130Z,7360.00
2023-05-21T11:45:44.107Z,7116.00
2023-05-21T11:46:44.168Z,7244.00
2023-05-21T11:47:44.165Z,7224.00
2023-05-21T11:48:44.083Z,7284.00
2023-05-21T11:49:44.074Z,7320.00
2023-05-21T11:50:44.053Z,7352.00
2023-05-21T11:51:44.059Z,7376.00
2023-05-21T11:52:44.046Z,7400.00
2023-05-21T11:53:44.419Z,7412.00
2023-05-21T11:54:45.035Z,7408.00
2023-05-21T11:55:44.013Z,7448.00
2023-05-21T11:56:44.036Z,7452.00
2023-05-21T11:57:43.998Z,7508.00
2023-05-21T11:58:44.013Z,7508.00
2023-05-21T11:59:43.997Z,7504.00
2023-05-21T12:00:43.964Z,7596.00
2023-05-21T12:01:43.961Z,7704.00
2023-05-21T12:02:44.002Z,7980.00
2023-05-21T12:03:44.099Z,7840.00
2023-05-21T12:04:43.939Z,7784.00
2023-05-21T12:05:43.953Z,7672.00
2023-05-21T12:06:43.920Z,7684.00
2023-05-21T12:07:43.901Z,7756.00
2023-05-21T12:08:43.924Z,7732.00
2023-05-21T12:09:43.894Z,7736.00
2023-05-21T12:10:46.132Z,7672.00
2023-05-21T12:11:44.885Z,7672.00
2023-05-21T12:12:54.647Z,7864.00
2023-05-21T12:13:48.725Z,8020.00
2023-05-21T12:14:43.858Z,8244.00
2023-05-21T12:15:43.835Z,8328.00
2023-05-21T12:16:43.861Z,8652.00
2023-05-21T12:17:43.838Z,8952.00
2023-05-21T12:18:43.850Z,9056.00
2023-05-21T12:19:43.808Z,8920.00
2023-05-21T12:20:43.788Z,8876.00
2023-05-21T12:21:43.811Z,9108.00
2023-05-21T12:22:43.787Z,8724.00
2023-05-21T12:23:43.756Z,9332.00
2023-05-21T12:24:43.775Z,9352.00
2023-05-21T12:25:43.729Z,9448.00
2023-05-21T12:26:43.747Z,9520.00